createdAt,value
2018-07-22T00:00:59.529Z,22.56
2018-07-22T00:03:29.583Z,22.43
2018-07-22T00:06:00.705Z,22.27
2018-07-22T00:08:31.705Z,21.79
2018-07-22T00:11:01.529Z,21.84
2018-07-22T00:13:32.803Z,21.83
2018-07-22T00:16:04.088Z,22.00
2018-07-22T00:18:33.899Z,22.04
2018-07-22T00:21:03.766Z,21.98
2018-07-22T00:23:33.778Z,21.82
2018-07-22T00:26:05.001Z,21.52
2018-07-22T00:28:36.087Z,21.26
2018-07-22T00:31:05.964Z,21.17
2018-07-22T00:33:35.895Z,21.18
2018-07-22T00:36:05.752Z,21.26
2018-07-22T00:38:37.877Z,21.39
2018-07-22T00:41:08.456Z,21.63
2018-07-22T00:43:38.338Z,21.66
2018-07-22T00:46:08.678Z,21.65
2018-07-22T00:48:40.588Z,21.58
2018-07-22T00:54:22.385Z,21.33
2018-07-22T00:56:55.388Z,21.29
2018-07-22T00:59:26.808Z,21.21
2018-07-22T01:01:57.632Z,21.19
2018-07-22T01:04:28.551Z,21.13
2018-07-22T01:06:59.664Z,20.93
2018-07-22T01:09:30.698Z,20.81
2018-07-22T01:12:01.597Z,20.91
2018-07-22T01:14:31.917Z,20.97
2018-07-22T01:17:01.840Z,20.98
2018-07-22T01:19:31.859Z,20.98
2018-07-22T01:22:01.727Z,21.02
2018-07-22T01:24:31.692Z,21.05
2018-07-22T01:27:01.644Z,21.16
2018-07-22T01:29:31.591Z,21.22
2018-07-22T01:32:01.707Z,21.30
2018-07-22T01:34:31.640Z,21.47
2018-07-22T01:37:01.730Z,21.51
2018-07-22T01:39:31.675Z,21.60
2018-07-22T01:42:01.647Z,21.60
2018-07-22T01:44:31.757Z,21.50
2018-07-22T01:47:01.996Z,21.26
2018-07-22T01:49:31.917Z,20.89
2018-07-22T01:52:03.801Z,20.53
2018-07-22T01:54:33.977Z,20.28
2018-07-22T01:57:04.161Z,20.65
2018-07-22T01:59:35.786Z,20.89
2018-07-22T02:02:06.472Z,21.01
2018-07-22T02:04:36.398Z,21.16
2018-07-22T02:07:07.434Z,21.18
2018-07-22T02:09:37.552Z,21.02
2018-07-22T02:12:08.536Z,20.76
2018-07-22T02:14:39.579Z,20.55
2018-07-22T02:17:09.619Z,20.68
2018-07-22T02:20:06.239Z,20.70
2018-07-22T02:22:39.392Z,20.83
2018-07-22T02:25:12.333Z,20.93
2018-07-22T02:27:43.296Z,21.01
2018-07-22T02:30:13.292Z,20.99
2018-07-22T02:32:44.245Z,20.97
2018-07-22T02:35:18.314Z,20.95
2018-07-22T02:37:48.379Z,21.21
2018-07-22T02:40:20.592Z,21.58
2018-07-22T02:42:51.826Z,21.50
2018-07-22T02:45:21.850Z,21.56
2018-07-22T02:47:51.735Z,21.61
2018-07-22T02:50:25.053Z,21.56
2018-07-22T02:52:56.089Z,21.20
2018-07-22T02:55:27.581Z,20.51
2018-07-22T02:57:58.312Z,20.00
2018-07-22T03:00:28.463Z,19.59
2018-07-22T03:02:59.857Z,19.38
2018-07-22T03:05:29.818Z,19.18
2018-07-22T03:07:59.792Z,19.12
2018-07-22T03:10:29.743Z,19.02
2018-07-22T03:12:59.761Z,18.94
2018-07-22T03:15:29.715Z,18.86
2018-07-22T03:18:22.782Z,18.77
2018-07-22T03:20:58.242Z,18.67
2018-07-22T03:23:33.609Z,18.65
2018-07-22T03:26:04.382Z,18.61
2018-07-22T03:28:34.729Z,18.68
2018-07-22T03:31:04.710Z,18.74
2018-07-22T03:33:35.374Z,18.80
2018-07-22T03:36:06.013Z,18.95
2018-07-22T03:38:35.872Z,18.94
2018-07-22T03:41:06.382Z,18.96
2018-07-22T03:43:36.221Z,19.01
2018-07-22T03:46:06.613Z,19.09
2018-07-22T03:48:36.639Z,19.12
2018-07-22T03:51:07.167Z,19.14
2018-07-22T03:53:37.012Z,19.21
2018-07-22T03:56:07.222Z,19.26
2018-07-22T03:58:37.330Z,19.28
2018-07-22T04:01:07.916Z,19.34
2018-07-22T04:03:37.756Z,19.34
2018-07-22T04:06:08.284Z,19.18
2018-07-22T04:08:38.223Z,19.13
2018-07-22T04:11:09.021Z,19.08
2018-07-22T04:13:38.969Z,19.11
2018-07-22T04:16:09.343Z,19.26
2018-07-22T04:18:43.961Z,19.26
2018-07-22T04:21:13.879Z,19.36
2018-07-22T04:23:43.939Z,19.49
2018-07-22T04:26:13.832Z,19.68
2018-07-22T04:28:43.717Z,20.01
2018-07-22T04:31:13.664Z,20.23
2018-07-22T04:33:43.736Z,20.29
2018-07-22T04:36:14.271Z,20.32
2018-07-22T04:38:44.299Z,20.50
2018-07-22T04:41:14.356Z,20.67
2018-07-22T04:43:44.684Z,20.83
2018-07-22T04:46:14.762Z,20.97
2018-07-22T04:48:44.806Z,21.14
2018-07-22T04:51:14.843Z,21.39
2018-07-22T04:53:45.244Z,21.64
2018-07-22T04:56:15.264Z,21.95
2018-07-22T04:58:45.266Z,21.92
2018-07-22T05:01:15.227Z,21.98
2018-07-22T05:03:45.300Z,22.29
2018-07-22T05:06:15.384Z,22.54
2018-07-22T05:08:45.830Z,22.84
2018-07-22T05:11:15.900Z,23.05
2018-07-22T05:13:46.070Z,23.28
2018-07-22T05:16:16.109Z,23.79
2018-07-22T05:18:46.073Z,23.91
2018-07-22T05:21:16.229Z,23.71
2018-07-22T05:23:46.249Z,23.54
2018-07-22T05:26:16.173Z,23.51
2018-07-22T05:28:46.239Z,24.00
2018-07-22T05:31:16.196Z,24.37
2018-07-22T05:33:46.187Z,24.41
2018-07-22T05:36:16.236Z,24.53
2018-07-22T05:38:46.323Z,24.45
2018-07-22T05:41:16.324Z,24.66
2018-07-22T05:43:46.304Z,24.95
2018-07-22T05:46:16.347Z,25.29
2018-07-22T05:48:46.343Z,25.55
2018-07-22T05:51:16.245Z,25.54
2018-07-22T05:53:46.788Z,25.64
2018-07-22T05:56:17.063Z,25.48
2018-07-22T05:58:47.119Z,25.02
2018-07-22T06:01:17.471Z,24.49
2018-07-22T06:03:47.576Z,24.90
2018-07-22T06:06:17.765Z,24.98
2018-07-22T06:08:48.072Z,25.19
2018-07-22T06:11:18.011Z,24.93
2018-07-22T06:13:48.760Z,25.18
2018-07-22T06:16:18.803Z,25.84
2018-07-22T06:18:54.254Z,25.82
2018-07-22T06:21:25.789Z,26.54
2018-07-22T06:23:55.859Z,26.41
2018-07-22T06:26:48.059Z,26.66
2018-07-22T06:29:18.384Z,26.45
2018-07-22T06:31:50.341Z,26.68
2018-07-22T06:34:22.826Z,26.84
2018-07-22T06:36:52.779Z,26.89
2018-07-22T06:39:22.750Z,26.34
2018-07-22T06:41:52.693Z,26.46
2018-07-22T06:44:22.660Z,26.59
2018-07-22T06:46:52.567Z,27.00
2018-07-22T06:49:22.723Z,27.37
2018-07-22T06:51:52.652Z,27.20
2018-07-22T06:54:22.671Z,27.35
2018-07-22T06:57:06.952Z,26.79
2018-07-22T06:59:36.928Z,26.59
2018-07-22T07:02:07.916Z,26.86
2018-07-22T07:04:37.882Z,27.02
2018-07-22T07:07:08.730Z,27.13
2018-07-22T07:09:39.453Z,27.63
2018-07-22T07:12:09.955Z,27.90
2018-07-22T07:14:40.007Z,27.77
2018-07-22T07:17:10.069Z,27.88
2018-07-22T07:19:40.144Z,27.95
2018-07-22T07:22:18.083Z,27.75
2018-07-22T07:24:48.063Z,27.98
2018-07-22T07:27:18.131Z,27.99
2018-07-22T07:29:48.002Z,28.20
2018-07-22T07:32:17.877Z,28.19
2018-07-22T07:34:47.837Z,27.85
2018-07-22T07:37:18.000Z,28.91
2018-07-22T07:39:47.890Z,29.32
2018-07-22T07:42:18.080Z,29.23
2018-07-22T07:44:48.621Z,29.43
2018-07-22T07:47:19.046Z,29.08
2018-07-22T07:49:50.204Z,28.77
2018-07-22T07:52:20.232Z,28.33
2018-07-22T07:54:50.103Z,28.56
2018-07-22T07:57:20.312Z,29.59
2018-07-22T07:59:53.423Z,30.23
2018-07-22T08:02:25.417Z,29.70
2018-07-22T08:04:55.848Z,29.72
2018-07-22T08:07:25.915Z,29.76
2018-07-22T08:09:55.947Z,29.40
2018-07-22T08:12:25.864Z,30.44
2018-07-22T08:14:55.961Z,29.91
2018-07-22T08:17:26.065Z,29.72
2018-07-22T08:19:56.026Z,29.80
2018-07-22T08:22:25.988Z,30.34
2018-07-22T08:24:55.879Z,29.97
2018-07-22T08:27:25.757Z,29.62
2018-07-22T08:29:55.898Z,28.63
2018-07-22T08:32:25.743Z,28.00
2018-07-22T08:34:55.702Z,28.11
2018-07-22T08:37:25.909Z,28.12
2018-07-22T08:39:55.795Z,28.69
2018-07-22T08:42:25.705Z,28.77
2018-07-22T08:44:55.821Z,28.51
2018-07-22T08:47:25.947Z,27.73
2018-07-22T08:49:55.948Z,28.07
2018-07-22T08:52:26.007Z,29.22
2018-07-22T08:54:55.955Z,29.86
2018-07-22T08:57:25.916Z,29.56
2018-07-22T08:59:55.859Z,28.87
2018-07-22T09:02:25.775Z,30.10
2018-07-22T09:04:55.686Z,30.09
2018-07-22T09:07:25.580Z,31.26
2018-07-22T09:09:55.502Z,31.43
2018-07-22T09:12:25.421Z,30.60
2018-07-22T09:14:56.677Z,31.60
2018-07-22T09:17:26.715Z,31.30
2018-07-22T09:19:56.635Z,29.91
2018-07-22T09:22:26.569Z,29.32
2018-07-22T09:24:56.396Z,29.98
2018-07-22T09:27:26.271Z,30.85
2018-07-22T09:29:56.057Z,31.36
2018-07-22T09:32:25.989Z,31.86
2018-07-22T09:34:56.075Z,33.12
2018-07-22T09:37:26.195Z,32.23
2018-07-22T09:39:56.237Z,32.30
2018-07-22T09:42:26.117Z,31.81
2018-07-22T09:44:56.183Z,32.02
2018-07-22T09:47:26.044Z,31.58
2018-07-22T09:49:55.852Z,31.61
2018-07-22T09:52:26.692Z,30.93
2018-07-22T09:54:56.567Z,30.76
2018-07-22T09:57:26.469Z,30.35
2018-07-22T09:59:57.011Z,30.93
2018-07-22T10:02:27.037Z,30.99
2018-07-22T10:04:57.203Z,30.91
2018-07-22T10:07:27.695Z,30.84
2018-07-22T10:09:57.679Z,31.28
2018-07-22T10:12:27.733Z,32.15
2018-07-22T10:14:57.696Z,32.54
2018-07-22T10:35:25.748Z,31.58
2018-07-22T10:37:55.644Z,31.56
2018-07-22T10:40:25.669Z,31.54
2018-07-22T10:42:55.579Z,31.01
2018-07-22T10:45:25.498Z,30.49
2018-07-22T10:47:55.395Z,30.31
2018-07-22T10:50:25.519Z,32.25
2018-07-22T10:52:55.450Z,33.44
2018-07-22T10:55:25.659Z,33.17
2018-07-22T10:57:55.809Z,34.88
2018-07-22T11:00:25.800Z,35.25
2018-07-22T11:02:55.713Z,34.63
2018-07-22T11:05:25.698Z,35.21
2018-07-22T11:07:55.775Z,35.19
2018-07-22T11:10:25.921Z,34.84
2018-07-22T11:12:55.852Z,33.94
2018-07-22T11:15:25.854Z,32.53
2018-07-22T11:17:55.856Z,32.29
2018-07-22T11:20:25.855Z,33.08
2018-07-22T11:22:55.716Z,34.19
2018-07-22T11:25:25.834Z,34.04
2018-07-22T11:27:55.717Z,34.43
2018-07-22T11:30:25.748Z,33.63
2018-07-22T11:32:55.786Z,32.66
2018-07-22T11:35:25.752Z,32.64
2018-07-22T11:37:55.817Z,33.24
2018-07-22T11:40:25.922Z,33.71
2018-07-22T11:42:56.115Z,34.48
2018-07-22T11:45:26.295Z,34.75
2018-07-22T11:47:56.250Z,35.13
2018-07-22T11:50:26.368Z,35.50
2018-07-22T11:52:56.287Z,35.02
2018-07-22T11:55:26.240Z,34.73
2018-07-22T11:57:56.116Z,33.72
2018-07-22T12:00:26.143Z,33.19
2018-07-22T12:02:56.433Z,33.01
2018-07-22T12:05:26.362Z,32.76
2018-07-22T12:07:56.292Z,32.63
2018-07-22T12:10:26.217Z,33.46
2018-07-22T12:12:56.272Z,33.78
2018-07-22T12:15:26.219Z,34.26
2018-07-22T12:17:56.168Z,34.74
2018-07-22T12:20:26.128Z,34.23
2018-07-22T12:22:56.136Z,34.72
2018-07-22T12:25:26.069Z,34.85
2018-07-22T12:27:56.085Z,35.03
2018-07-22T12:30:26.380Z,34.82
2018-07-22T12:32:56.350Z,35.06
2018-07-22T12:35:26.294Z,34.68
2018-07-22T12:37:56.206Z,34.69
2018-07-22T12:40:26.179Z,35.50
2018-07-22T12:42:56.145Z,35.13
2018-07-22T12:45:25.978Z,35.42
2018-07-22T12:47:56.304Z,35.10
2018-07-22T12:50:26.208Z,35.94
2018-07-22T12:52:56.930Z,35.02
2018-07-22T12:55:28.799Z,34.36
2018-07-22T12:58:01.549Z,34.28
2018-07-22T13:00:33.824Z,34.05
2018-07-22T13:03:04.382Z,34.87
2018-07-22T13:05:34.449Z,34.79
2018-07-22T13:08:10.709Z,35.06
2018-07-22T13:10:41.664Z,34.70
2018-07-22T13:13:11.521Z,34.88
2018-07-22T13:15:41.737Z,35.68
2018-07-22T13:18:12.301Z,35.55
2018-07-22T13:20:43.578Z,35.14
2018-07-22T13:23:16.813Z,34.01
2018-07-22T13:25:48.127Z,33.29
2018-07-22T13:28:18.204Z,33.03
2018-07-22T13:30:54.173Z,33.52
2018-07-22T13:33:26.512Z,33.65
2018-07-22T13:35:56.408Z,33.30
2018-07-22T13:38:26.859Z,33.22
2018-07-22T13:40:56.770Z,33.68
2018-07-22T13:43:26.752Z,33.42
2018-07-22T13:45:57.023Z,33.66
2018-07-22T13:48:26.965Z,33.36
2018-07-22T13:50:57.202Z,32.80
2018-07-22T13:53:27.107Z,33.12
2018-07-22T13:55:59.320Z,32.71
2018-07-22T13:58:29.255Z,33.03
2018-07-22T14:00:59.180Z,33.56
2018-07-22T14:03:29.097Z,33.22
2018-07-22T14:05:59.116Z,33.22
2018-07-22T14:08:29.239Z,32.92
2018-07-22T14:11:01.509Z,32.61
2018-07-22T14:13:31.537Z,32.52
2018-07-22T14:16:03.809Z,32.70
2018-07-22T14:18:33.787Z,32.72
2018-07-22T14:21:04.928Z,32.56
2018-07-22T14:23:36.499Z,32.24
2018-07-22T14:26:08.215Z,32.33
2018-07-22T14:28:38.250Z,32.31
2018-07-22T14:31:09.664Z,31.54
2018-07-22T14:33:39.714Z,31.88
2018-07-22T14:36:09.879Z,31.95
2018-07-22T14:38:40.117Z,31.79
2018-07-22T14:41:10.301Z,31.52
2018-07-22T14:43:40.219Z,30.96
2018-07-22T14:46:11.044Z,30.67
2018-07-22T14:48:41.183Z,30.10
2018-07-22T14:51:11.644Z,29.81
2018-07-22T14:53:43.978Z,29.54
2018-07-22T14:56:14.646Z,29.40
2018-07-22T14:58:44.658Z,29.50
2018-07-22T15:01:14.951Z,29.73
2018-07-22T15:03:45.505Z,30.08
2018-07-22T15:06:16.185Z,30.07
2018-07-22T15:08:46.470Z,30.04
2018-07-22T15:11:17.326Z,30.12
2018-07-22T15:13:47.549Z,29.91
2018-07-22T15:16:17.895Z,29.97
2018-07-22T15:18:48.937Z,30.00
2018-07-22T15:21:19.992Z,29.79
2018-07-22T15:23:50.258Z,29.62
2018-07-22T15:26:21.301Z,29.18
2018-07-22T15:28:51.611Z,28.89
2018-07-22T15:31:21.783Z,28.72
2018-07-22T15:33:51.856Z,28.58
2018-07-22T15:36:22.926Z,28.41
2018-07-22T15:38:54.216Z,28.35
2018-07-22T15:41:24.922Z,28.39
2018-07-22T15:43:55.650Z,28.43
2018-07-22T15:46:26.271Z,28.59
2018-07-22T15:49:08.080Z,28.66
2018-07-22T15:51:38.319Z,28.78
2018-07-22T15:54:09.086Z,29.03
2018-07-22T15:56:39.426Z,29.15
2018-07-22T15:59:11.189Z,29.26
2018-07-22T16:01:41.668Z,29.36
2018-07-22T16:04:13.697Z,29.28
2018-07-22T16:06:43.765Z,29.01
2018-07-22T16:09:13.658Z,28.84
2018-07-22T16:11:44.133Z,28.64
2018-07-22T16:14:14.104Z,28.61
2018-07-22T16:16:44.177Z,28.61
2018-07-22T16:19:14.079Z,28.61
2018-07-22T16:21:44.448Z,28.60
2018-07-22T16:24:14.349Z,28.62
2018-07-22T16:26:44.269Z,28.68
2018-07-22T16:29:14.051Z,28.54
2018-07-22T16:31:44.198Z,28.47
2018-07-22T16:34:14.180Z,28.45
2018-07-22T16:36:44.076Z,28.48
2018-07-22T16:39:14.076Z,28.51
2018-07-22T16:41:44.008Z,28.36
2018-07-22T16:44:13.990Z,28.23
2018-07-22T16:46:44.131Z,28.15
2018-07-22T16:49:13.967Z,28.09
2018-07-22T16:51:43.969Z,28.05
2018-07-22T16:54:14.017Z,27.93
2018-07-22T16:56:43.981Z,27.84
2018-07-22T16:59:13.772Z,27.81
2018-07-22T17:01:43.658Z,27.67
2018-07-22T17:04:13.737Z,27.48
2018-07-22T17:06:43.646Z,27.33
2018-07-22T17:09:13.482Z,27.34
2018-07-22T17:11:43.480Z,27.20
2018-07-22T17:14:13.659Z,27.10
2018-07-22T17:16:44.330Z,27.00
2018-07-22T17:19:14.199Z,27.08
2018-07-22T17:21:44.172Z,27.11
2018-07-22T17:24:14.269Z,27.25
2018-07-22T17:26:44.184Z,27.11
2018-07-22T17:29:14.295Z,26.92
2018-07-22T17:31:44.245Z,26.75
2018-07-22T17:34:14.214Z,26.66
2018-07-22T17:36:44.280Z,26.65
2018-07-22T17:39:14.280Z,26.62
2018-07-22T17:41:44.462Z,26.44
2018-07-22T17:44:14.340Z,26.25
2018-07-22T17:46:44.540Z,26.09
2018-07-22T17:49:14.992Z,25.91
2018-07-22T17:51:44.921Z,25.92
2018-07-22T17:54:14.781Z,25.96
2018-07-22T17:56:44.840Z,25.99
2018-07-22T17:59:15.052Z,26.03
2018-07-22T18:01:44.987Z,25.87
2018-07-22T18:04:15.011Z,25.68
2018-07-22T18:06:45.044Z,25.66
2018-07-22T18:09:15.390Z,25.66
2018-07-22T18:11:45.681Z,25.56
2018-07-22T18:14:15.923Z,25.53
2018-07-22T18:16:45.924Z,25.52
2018-07-22T18:19:16.155Z,25.51
2018-07-22T18:21:47.410Z,25.50
2018-07-22T18:24:17.581Z,25.46
2018-07-22T18:26:47.556Z,25.47
2018-07-22T18:29:17.987Z,25.48
2018-07-22T18:31:48.819Z,25.62
2018-07-22T18:34:18.759Z,25.60
2018-07-22T18:36:48.986Z,25.52
2018-07-22T18:39:19.113Z,25.58
2018-07-22T18:41:49.025Z,25.81
2018-07-22T18:44:19.091Z,25.74
2018-07-22T18:46:49.058Z,25.57
2018-07-22T18:49:18.996Z,25.38
2018-07-22T18:51:48.997Z,25.22
2018-07-22T18:54:19.046Z,25.08
2018-07-22T18:56:48.964Z,24.96
2018-07-22T18:59:18.918Z,24.96
2018-07-22T19:01:48.922Z,24.98
2018-07-22T19:04:18.865Z,25.01
2018-07-22T19:06:48.857Z,25.02
2018-07-22T19:09:18.986Z,24.97
2018-07-22T19:11:52.669Z,25.14
2018-07-22T19:14:22.633Z,25.17
2018-07-22T19:16:52.535Z,25.14
2018-07-22T19:19:22.752Z,25.09
2018-07-22T19:21:52.653Z,24.99
2018-07-22T19:24:22.662Z,24.77
2018-07-22T19:26:53.832Z,24.61
2018-07-22T19:29:23.965Z,24.56
2018-07-22T19:31:53.887Z,24.55
2018-07-22T19:34:23.832Z,24.58
2018-07-22T19:36:53.923Z,24.55
2018-07-22T19:39:25.205Z,24.58
2018-07-22T19:41:55.412Z,24.62
2018-07-22T19:44:27.764Z,24.70
2018-07-22T19:46:58.462Z,24.64
2018-07-22T19:49:28.570Z,24.56
2018-07-22T19:51:59.227Z,24.65
2018-07-22T19:54:29.896Z,24.61
2018-07-22T19:57:00.005Z,24.50
2018-07-22T19:59:32.501Z,24.45
2018-07-22T20:02:02.943Z,24.43
2018-07-22T20:07:43.308Z,24.45
2018-07-22T20:10:16.213Z,24.50
2018-07-22T20:12:50.177Z,24.47
2018-07-22T20:15:21.615Z,24.38
2018-07-22T20:17:52.107Z,24.32
2018-07-22T20:20:24.392Z,24.36
2018-07-22T20:22:54.541Z,24.16
2018-07-22T20:25:25.213Z,24.05
2018-07-22T20:27:55.500Z,23.90
2018-07-22T20:30:26.039Z,23.81
2018-07-22T20:32:56.142Z,23.86
2018-07-22T20:35:26.372Z,23.92
2018-07-22T20:37:56.985Z,23.96
2018-07-22T20:40:26.939Z,23.95
2018-07-22T20:42:57.281Z,23.92
2018-07-22T20:45:27.969Z,23.88
2018-07-22T20:47:58.387Z,23.90
2018-07-22T20:50:29.766Z,23.83
2018-07-22T20:52:59.964Z,23.68
2018-07-22T20:55:30.557Z,23.60
2018-07-22T20:58:00.638Z,23.46
2018-07-22T21:00:31.404Z,23.28
2018-07-22T21:03:01.759Z,23.19
2018-07-22T21:05:32.009Z,23.11
2018-07-22T21:08:02.149Z,23.00
2018-07-22T21:10:33.372Z,23.00
2018-07-22T21:13:14.358Z,23.02
2018-07-22T21:15:44.516Z,23.07
2018-07-22T21:18:14.957Z,23.10
2018-07-22T21:20:45.649Z,23.03
2018-07-22T21:23:16.173Z,22.81
2018-07-22T21:25:46.917Z,22.77
2018-07-22T21:28:17.440Z,22.84
2018-07-22T21:30:47.864Z,22.84
2018-07-22T21:33:18.895Z,22.80
2018-07-22T21:35:49.746Z,22.79
2018-07-22T21:38:20.140Z,22.64
2018-07-22T21:40:51.073Z,22.45
2018-07-22T21:43:21.962Z,22.23
2018-07-22T21:45:52.393Z,22.13
2018-07-22T21:48:22.519Z,22.01
2018-07-22T21:50:52.731Z,21.93
2018-07-22T21:53:22.624Z,21.83
2018-07-22T21:55:52.612Z,21.96
2018-07-22T21:58:22.714Z,21.94
2018-07-22T22:01:06.654Z,22.00
2018-07-22T22:03:40.755Z,21.96
2018-07-22T22:06:12.290Z,21.87
2018-07-22T22:08:42.278Z,22.03
2018-07-22T22:11:12.672Z,22.21
2018-07-22T22:13:43.042Z,22.30
2018-07-22T22:16:13.284Z,22.40
2018-07-22T22:18:43.970Z,22.46
2018-07-22T22:21:14.849Z,22.48
2018-07-22T22:23:44.973Z,22.45
2018-07-22T22:26:15.050Z,22.32
2018-07-22T22:28:50.580Z,22.19
2018-07-22T22:31:21.077Z,22.16
2018-07-22T22:33:51.075Z,22.17
2018-07-22T22:36:21.318Z,22.22
2018-07-22T22:38:51.336Z,22.29
2018-07-22T22:41:21.313Z,22.33
2018-07-22T22:43:51.258Z,22.31
2018-07-22T22:46:22.500Z,22.37
2018-07-22T22:48:52.690Z,22.36
2018-07-22T22:51:22.862Z,22.29
2018-07-22T22:53:54.547Z,22.24
2018-07-22T22:56:26.394Z,22.19
2018-07-22T22:59:10.101Z,22.19
2018-07-22T23:01:40.489Z,22.20
2018-07-22T23:04:15.955Z,22.11
2018-07-22T23:06:50.169Z,22.11
2018-07-22T23:09:20.176Z,21.97
2018-07-22T23:11:50.420Z,21.79
2018-07-22T23:14:20.568Z,21.72
2018-07-22T23:16:51.615Z,21.64
2018-07-22T23:19:22.278Z,21.55
2018-07-22T23:22:00.145Z,21.29
2018-07-22T23:24:34.928Z,21.10
2018-07-22T23:27:09.444Z,20.95
2018-07-22T23:29:40.509Z,20.82
2018-07-22T23:32:10.797Z,20.76
2018-07-22T23:34:40.928Z,20.77
2018-07-22T23:37:11.094Z,20.79
2018-07-22T23:39:40.911Z,20.81
2018-07-22T23:42:11.011Z,20.81
2018-07-22T23:44:40.978Z,20.93
2018-07-22T23:47:11.151Z,21.08
2018-07-22T23:49:41.380Z,21.13
2018-07-22T23:52:12.298Z,21.15
2018-07-22T23:54:42.211Z,21.25
2018-07-22T23:57:12.165Z,21.20
2018-07-22T23:59:42.215Z,21.28
